createdAt,value
2022-10-05T00:00:33.373Z,63.70
2022-10-05T00:02:17.811Z,63.70
2022-10-05T00:03:51.982Z,63.70
2022-10-05T00:05:33.732Z,63.70
2022-10-05T00:07:15.232Z,63.60
2022-10-05T00:08:47.592Z,63.60
2022-10-05T00:10:21.623Z,63.60
2022-10-05T00:11:55.204Z,63.90
2022-10-05T00:13:31.334Z,63.80
2022-10-05T00:15:13.732Z,63.90
2022-10-05T00:16:47.471Z,64.10
2022-10-05T00:18:23.482Z,63.90
2022-10-05T00:19:57.107Z,64.00
2022-10-05T00:21:30.858Z,64.10
2022-10-05T00:23:14.752Z,64.30
2022-10-05T00:24:56.024Z,64.50
2022-10-05T00:26:34.183Z,64.60
2022-10-05T00:28:19.661Z,64.70
2022-10-05T00:30:01.218Z,64.90
2022-10-05T00:31:37.238Z,64.80
2022-10-05T00:33:10.543Z,65.00
2022-10-05T00:34:46.055Z,64.90
2022-10-05T00:36:20.716Z,65.10
2022-10-05T00:37:56.604Z,65.10
2022-10-05T00:39:29.991Z,65.00
2022-10-05T00:41:12.935Z,65.10
2022-10-05T00:42:58.931Z,65.30
2022-10-05T00:44:46.805Z,65.40
2022-10-05T00:46:27.068Z,65.50
2022-10-05T00:48:15.104Z,65.30
2022-10-05T00:50:25.951Z,65.30
2022-10-05T00:52:20.061Z,65.50
2022-10-05T00:54:21.775Z,65.20
2022-10-05T00:56:04.559Z,65.30
2022-10-05T00:57:58.219Z,65.20
2022-10-05T00:59:50.177Z,65.30
2022-10-05T01:01:33.385Z,65.20
2022-10-05T01:03:20.143Z,65.20
2022-10-05T01:05:03.596Z,65.30
2022-10-05T01:06:52.242Z,65.30
2022-10-05T01:08:43.191Z,65.40
2022-10-05T01:10:27.813Z,65.40
2022-10-05T01:12:10.318Z,65.30
2022-10-05T01:13:56.243Z,65.30
2022-10-05T01:15:36.419Z,65.30
2022-10-05T01:17:20.328Z,65.30
2022-10-05T01:19:06.250Z,65.40
2022-10-05T01:20:55.529Z,65.20
2022-10-05T01:22:51.962Z,65.20
2022-10-05T01:24:53.746Z,65.20
2022-10-05T01:27:06.711Z,65.20
2022-10-05T01:28:52.604Z,65.10
2022-10-05T01:30:26.038Z,64.80
2022-10-05T01:32:07.011Z,64.80
2022-10-05T01:33:47.682Z,65.00
2022-10-05T01:35:36.703Z,65.00
2022-10-05T01:37:24.248Z,65.00
2022-10-05T01:39:12.875Z,64.80
2022-10-05T01:41:03.118Z,64.80
2022-10-05T01:42:57.165Z,64.70
2022-10-05T01:44:41.235Z,64.70
2022-10-05T01:46:28.525Z,64.60
2022-10-05T01:48:12.698Z,64.70
2022-10-05T01:49:58.706Z,64.70
2022-10-05T01:51:46.232Z,64.50
2022-10-05T01:53:36.671Z,64.50
2022-10-05T01:55:23.698Z,64.30
2022-10-05T01:57:13.100Z,64.20
2022-10-05T01:59:01.156Z,64.30
2022-10-05T02:00:50.053Z,64.20
2022-10-05T02:02:26.149Z,64.10
2022-10-05T02:04:10.070Z,64.00
2022-10-05T02:05:52.231Z,64.10
2022-10-05T02:07:35.242Z,64.10
2022-10-05T02:09:18.281Z,64.00
2022-10-05T02:11:00.550Z,64.10
2022-10-05T02:12:39.089Z,64.00
2022-10-05T02:14:18.389Z,64.00
2022-10-05T02:16:01.456Z,63.80
2022-10-05T02:17:44.308Z,63.80
2022-10-05T02:19:22.959Z,63.90
2022-10-05T02:20:59.343Z,64.10
2022-10-05T02:22:40.722Z,63.90
2022-10-05T02:24:24.083Z,64.00
2022-10-05T02:25:59.451Z,64.10
2022-10-05T02:27:38.478Z,64.00
2022-10-05T02:29:17.511Z,64.10
2022-10-05T02:30:59.827Z,64.10
2022-10-05T02:32:40.764Z,64.20
2022-10-05T02:34:27.100Z,64.10
2022-10-05T02:36:15.885Z,64.20
2022-10-05T02:38:06.115Z,64.20
2022-10-05T02:39:56.235Z,64.20
2022-10-05T02:41:42.438Z,64.20
2022-10-05T02:43:28.533Z,64.00
2022-10-05T02:45:17.051Z,64.00
2022-10-05T02:47:06.208Z,64.20
2022-10-05T02:48:53.415Z,64.10
2022-10-05T02:50:38.247Z,64.20
2022-10-05T03:03:44.852Z,64.50
2022-10-05T03:05:27.014Z,64.50
2022-10-05T03:07:14.336Z,64.40
2022-10-05T03:09:01.119Z,65.40
2022-10-05T03:10:46.968Z,64.70
2022-10-05T03:12:43.699Z,65.00
2022-10-05T03:14:26.003Z,65.20
2022-10-05T03:16:36.032Z,65.10
2022-10-05T03:18:25.386Z,65.50
2022-10-05T03:20:23.559Z,65.30
2022-10-05T03:22:07.078Z,65.40
2022-10-05T03:23:57.411Z,65.30
2022-10-05T03:25:56.373Z,65.40
2022-10-05T03:27:42.915Z,65.50
2022-10-05T03:29:29.888Z,65.50
2022-10-05T03:31:10.158Z,65.60
2022-10-05T03:32:58.447Z,66.40
2022-10-05T03:34:43.820Z,65.70
2022-10-05T03:36:30.301Z,65.80
2022-10-05T03:38:14.280Z,65.90
2022-10-05T03:39:55.235Z,65.90
2022-10-05T03:41:41.188Z,65.90
2022-10-05T03:43:47.335Z,66.00
2022-10-05T03:45:31.476Z,66.10
2022-10-05T03:47:21.011Z,66.00
2022-10-05T03:49:09.636Z,66.00
2022-10-05T03:50:59.679Z,66.00
2022-10-05T03:52:40.727Z,66.00
2022-10-05T03:54:24.052Z,66.30
2022-10-05T03:56:06.620Z,66.00
2022-10-05T03:57:43.472Z,66.10
2022-10-05T03:59:27.723Z,66.00
2022-10-05T04:01:11.373Z,66.10
2022-10-05T04:02:52.047Z,66.10
2022-10-05T04:04:31.632Z,66.20
2022-10-05T04:06:13.431Z,66.20
2022-10-05T04:07:56.835Z,66.30
2022-10-05T04:09:37.865Z,66.40
2022-10-05T04:11:16.491Z,66.20
2022-10-05T04:12:55.725Z,66.20
2022-10-05T04:14:38.062Z,66.20
2022-10-05T04:16:16.737Z,66.20
2022-10-05T04:17:59.139Z,66.10
2022-10-05T04:19:41.349Z,66.10
2022-10-05T04:21:24.651Z,66.10
2022-10-05T04:23:15.511Z,66.10
2022-10-05T04:24:56.519Z,66.00
2022-10-05T04:26:42.328Z,65.80
2022-10-05T04:28:31.062Z,65.70
2022-10-05T04:30:12.363Z,65.70
2022-10-05T04:32:04.807Z,65.70
2022-10-05T04:33:38.786Z,65.70
2022-10-05T04:35:45.955Z,65.50
2022-10-05T04:37:26.581Z,65.60
2022-10-05T04:39:19.844Z,65.40
2022-10-05T04:41:15.896Z,65.50
2022-10-05T04:43:05.772Z,65.40
2022-10-05T04:45:11.312Z,65.40
2022-10-05T04:47:07.329Z,65.50
2022-10-05T04:49:24.579Z,65.40
2022-10-05T04:51:18.875Z,65.50
2022-10-05T04:53:07.128Z,65.30
2022-10-05T04:55:00.323Z,65.40
2022-10-05T04:56:42.826Z,66.20
2022-10-05T04:58:32.251Z,65.40
2022-10-05T05:00:20.962Z,65.50
2022-10-05T05:02:08.861Z,65.70
2022-10-05T05:04:07.401Z,65.90
2022-10-05T05:06:15.777Z,66.00
2022-10-05T05:07:57.743Z,66.20
2022-10-05T05:10:15.009Z,66.10
2022-10-05T05:12:08.869Z,66.40
2022-10-05T05:14:20.992Z,66.50
2022-10-05T05:16:05.453Z,66.40
2022-10-05T05:18:03.661Z,66.40
2022-10-05T05:19:56.216Z,66.40
2022-10-05T05:21:44.292Z,66.50
2022-10-05T05:23:31.359Z,66.70
2022-10-05T05:25:32.731Z,66.90
2022-10-05T05:27:29.136Z,67.30
2022-10-05T05:29:18.519Z,67.50
2022-10-05T05:31:13.368Z,67.70
2022-10-05T05:33:12.315Z,67.80
2022-10-05T05:35:06.846Z,68.20
2022-10-05T05:37:01.191Z,68.50
2022-10-05T05:38:38.701Z,68.80
2022-10-05T05:40:22.031Z,68.60
2022-10-05T05:42:07.144Z,69.10
2022-10-05T05:44:05.693Z,69.40
2022-10-05T05:45:44.034Z,69.70
2022-10-05T05:47:24.995Z,69.70
2022-10-05T05:48:58.380Z,69.80
2022-10-05T05:50:45.980Z,69.80
2022-10-05T05:52:28.503Z,70.20
2022-10-05T05:54:28.749Z,70.40
2022-10-05T05:56:12.157Z,70.70
2022-10-05T05:57:55.780Z,71.50
2022-10-05T05:59:41.859Z,70.80
2022-10-05T06:01:33.352Z,71.00
2022-10-05T06:03:20.034Z,71.30
2022-10-05T06:05:02.315Z,71.50
2022-10-05T06:06:42.405Z,71.60
2022-10-05T06:08:23.525Z,71.70
2022-10-05T06:10:12.450Z,71.60
2022-10-05T06:11:59.661Z,72.60
2022-10-05T06:13:39.624Z,72.00
2022-10-05T06:15:29.244Z,72.00
2022-10-05T06:17:11.223Z,72.10
2022-10-05T06:18:51.787Z,72.00
2022-10-05T06:20:32.019Z,72.10
2022-10-05T06:22:17.099Z,72.20
2022-10-05T06:23:59.527Z,72.30
2022-10-05T06:25:49.717Z,72.50
2022-10-05T06:27:36.574Z,72.50
2022-10-05T06:29:20.353Z,72.70
2022-10-05T06:31:19.414Z,72.70
2022-10-05T06:33:27.958Z,73.10
2022-10-05T06:35:18.686Z,73.10
2022-10-05T06:37:00.992Z,73.10
2022-10-05T06:39:04.479Z,73.10
2022-10-05T06:40:57.866Z,73.30
2022-10-05T06:43:06.761Z,73.60
2022-10-05T06:45:08.795Z,73.80
2022-10-05T06:47:04.117Z,73.90
2022-10-05T06:49:18.286Z,73.80
2022-10-05T06:51:27.272Z,74.20
2022-10-05T06:53:30.103Z,74.80
2022-10-05T06:55:19.558Z,74.40
2022-10-05T06:57:05.491Z,74.40
2022-10-05T06:59:00.453Z,74.30
2022-10-05T07:00:44.309Z,74.50
2022-10-05T07:02:30.807Z,74.50
2022-10-05T07:04:38.133Z,74.60
2022-10-05T07:06:17.803Z,74.80
2022-10-05T07:07:59.113Z,74.70
2022-10-05T07:09:53.333Z,74.70
2022-10-05T07:11:54.308Z,75.20
2022-10-05T07:14:14.118Z,75.10
2022-10-05T07:16:00.761Z,75.20
2022-10-05T07:17:50.016Z,75.10
2022-10-05T07:19:42.289Z,75.10
2022-10-05T07:21:29.156Z,75.20
2022-10-05T07:23:32.140Z,75.20
2022-10-05T07:25:14.413Z,75.30
2022-10-05T07:27:02.892Z,75.10
2022-10-05T07:28:48.260Z,75.10
2022-10-05T07:30:22.751Z,75.00
2022-10-05T07:32:11.776Z,74.80
2022-10-05T07:33:54.131Z,74.90
2022-10-05T07:35:59.354Z,74.90
2022-10-05T07:37:55.438Z,74.70
2022-10-05T07:39:59.780Z,74.60
2022-10-05T07:41:43.552Z,74.50
2022-10-05T07:43:51.483Z,74.40
2022-10-05T07:45:32.997Z,74.50
2022-10-05T07:47:20.392Z,74.20
2022-10-05T07:49:03.939Z,74.20
2022-10-05T07:50:53.343Z,74.20
2022-10-05T07:52:35.208Z,74.20
2022-10-05T07:54:24.480Z,74.00
2022-10-05T07:56:05.731Z,74.00
2022-10-05T07:57:50.414Z,74.00
2022-10-05T07:59:35.689Z,73.80
2022-10-05T08:01:19.220Z,73.60
2022-10-05T08:03:02.483Z,73.50
2022-10-05T08:04:48.271Z,73.40
2022-10-05T08:06:50.417Z,73.40
2022-10-05T08:08:36.534Z,73.00
2022-10-05T08:10:30.068Z,72.80
2022-10-05T08:12:32.422Z,72.60
2022-10-05T08:14:17.431Z,72.70
2022-10-05T08:15:56.710Z,72.60
2022-10-05T08:17:42.389Z,72.30
2022-10-05T08:19:24.129Z,72.50
2022-10-05T08:20:59.935Z,72.20
2022-10-05T08:22:44.650Z,72.20
2022-10-05T08:24:35.775Z,72.10
2022-10-05T08:26:26.146Z,71.70
2022-10-05T08:28:10.920Z,71.40
2022-10-05T08:29:56.575Z,71.20
2022-10-05T08:31:36.077Z,71.10
2022-10-05T08:33:17.787Z,71.10
2022-10-05T08:35:00.152Z,71.00
2022-10-05T08:36:55.019Z,70.70
2022-10-05T08:38:34.212Z,70.60
2022-10-05T08:40:46.273Z,70.50
2022-10-05T08:43:01.103Z,70.70
2022-10-05T08:45:07.714Z,70.60
2022-10-05T08:47:10.605Z,70.40
2022-10-05T08:49:35.046Z,70.20
2022-10-05T08:51:37.425Z,69.70
2022-10-05T08:53:51.626Z,69.70
2022-10-05T08:55:38.042Z,69.50
2022-10-05T08:58:07.510Z,69.40
2022-10-05T09:00:18.392Z,69.20
2022-10-05T09:02:21.899Z,69.10
2022-10-05T09:04:27.456Z,69.10
2022-10-05T09:06:33.223Z,68.80
2022-10-05T09:08:45.123Z,68.70
2022-10-05T09:11:08.895Z,68.70
2022-10-05T09:13:22.988Z,68.50
2022-10-05T09:15:26.293Z,68.30
2022-10-05T09:17:24.376Z,68.30
2022-10-05T09:19:52.099Z,68.10
2022-10-05T09:21:42.871Z,67.80
2022-10-05T09:23:38.329Z,68.00
2022-10-05T09:25:23.998Z,67.80
2022-10-05T09:27:10.322Z,67.80
2022-10-05T09:29:13.377Z,67.90
2022-10-05T09:31:17.759Z,67.80
2022-10-05T09:33:37.763Z,67.90
2022-10-05T09:36:00.509Z,67.50
2022-10-05T09:38:14.035Z,67.20
2022-10-05T09:40:52.752Z,67.40
2022-10-05T09:42:53.115Z,66.90
2022-10-05T09:45:10.527Z,66.80
2022-10-05T09:47:20.628Z,66.90
2022-10-05T09:49:17.449Z,66.50
2022-10-05T09:51:51.156Z,66.50
2022-10-05T09:53:58.725Z,66.00
2022-10-05T09:56:09.262Z,66.00
2022-10-05T09:58:41.320Z,65.70
2022-10-05T10:00:34.282Z,66.00
2022-10-05T10:02:52.287Z,65.70
2022-10-05T10:04:49.256Z,65.00
2022-10-05T10:07:03.647Z,65.30
2022-10-05T10:08:53.131Z,65.20
2022-10-05T10:11:02.365Z,65.20
2022-10-05T10:12:49.217Z,65.00
2022-10-05T10:15:11.185Z,65.00
2022-10-05T10:17:22.305Z,64.50
2022-10-05T10:19:27.029Z,64.30
2022-10-05T10:22:12.321Z,64.10
2022-10-05T10:24:15.049Z,63.90
2022-10-05T10:26:36.283Z,63.70
2022-10-05T10:28:46.215Z,63.40
2022-10-05T10:30:55.630Z,63.40
2022-10-05T10:33:13.415Z,63.00
2022-10-05T10:35:21.167Z,63.10
2022-10-05T10:37:36.052Z,62.90
2022-10-05T10:39:22.367Z,62.60
2022-10-05T10:41:47.886Z,62.80
2022-10-05T10:43:49.201Z,61.50
2022-10-05T10:45:49.785Z,61.70
2022-10-05T10:47:49.185Z,61.70
2022-10-05T10:49:50.135Z,61.80
2022-10-05T10:51:57.131Z,61.80
2022-10-05T10:54:12.233Z,62.70
2022-10-05T10:56:10.074Z,62.20
2022-10-05T10:58:27.298Z,61.80
2022-10-05T11:00:50.402Z,61.10
2022-10-05T11:03:13.171Z,60.70
2022-10-05T11:05:14.659Z,60.90
2022-10-05T11:07:25.897Z,60.40
2022-10-05T11:09:42.024Z,60.30
2022-10-05T11:11:52.191Z,60.00
2022-10-05T11:13:44.665Z,59.70
2022-10-05T11:16:22.207Z,60.10
2022-10-05T11:18:15.549Z,59.60
2022-10-05T11:20:09.167Z,59.70
2022-10-05T11:22:09.494Z,59.90
2022-10-05T11:24:38.770Z,59.70
2022-10-05T11:26:42.244Z,59.60
2022-10-05T11:28:36.028Z,59.40
2022-10-05T11:31:06.069Z,59.20
2022-10-05T11:33:34.667Z,58.70
2022-10-05T11:35:34.777Z,58.60
2022-10-05T11:37:56.626Z,58.50
2022-10-05T11:39:45.965Z,58.00
2022-10-05T11:42:06.161Z,58.30
2022-10-05T11:44:30.791Z,57.90
2022-10-05T11:46:15.148Z,57.70
2022-10-05T11:48:51.390Z,58.90
2022-10-05T11:50:34.288Z,58.30
2022-10-05T11:52:14.824Z,58.40
2022-10-05T11:54:02.609Z,58.50
2022-10-05T11:55:44.939Z,58.60
2022-10-05T11:57:28.706Z,58.40
2022-10-05T11:59:15.731Z,58.40
2022-10-05T12:00:57.848Z,58.40
2022-10-05T12:03:13.748Z,58.70
2022-10-05T12:05:01.700Z,57.60
2022-10-05T12:06:58.367Z,57.70
2022-10-05T12:08:47.600Z,57.40
2022-10-05T12:10:34.876Z,57.60
2022-10-05T12:12:21.965Z,57.40
2022-10-05T12:14:07.732Z,57.60
2022-10-05T12:15:52.188Z,57.50
2022-10-05T12:17:36.902Z,57.50
2022-10-05T12:19:19.505Z,57.30
2022-10-05T12:21:02.795Z,57.10
2022-10-05T12:22:45.144Z,57.10
2022-10-05T12:24:28.145Z,57.00
2022-10-05T12:26:06.046Z,57.00
2022-10-05T12:27:46.072Z,57.10
2022-10-05T12:29:28.486Z,57.20
2022-10-05T12:31:26.670Z,56.70
2022-10-05T12:33:09.844Z,56.50
2022-10-05T12:35:01.792Z,56.40
2022-10-05T12:37:03.054Z,56.20
2022-10-05T12:38:44.891Z,56.80
2022-10-05T12:40:28.581Z,56.00
2022-10-05T12:42:23.218Z,55.80
2022-10-05T12:44:12.442Z,55.50
2022-10-05T12:46:05.620Z,55.60
2022-10-05T12:48:00.971Z,55.60
2022-10-05T12:49:59.267Z,55.60
2022-10-05T12:51:42.264Z,55.50
2022-10-05T12:53:37.315Z,55.60
2022-10-05T12:55:25.924Z,54.80
2022-10-05T12:57:06.987Z,54.60
2022-10-05T12:58:53.705Z,54.40
2022-10-05T13:00:27.724Z,54.30
2022-10-05T13:02:17.796Z,54.70
2022-10-05T13:04:04.468Z,53.90
2022-10-05T13:05:48.258Z,54.00
2022-10-05T13:07:42.182Z,53.20
2022-10-05T13:09:26.451Z,53.20
2022-10-05T13:11:12.655Z,52.70
2022-10-05T13:13:04.857Z,52.20
2022-10-05T13:14:57.632Z,52.00
2022-10-05T13:16:54.818Z,52.20
2022-10-05T13:18:44.359Z,52.00
2022-10-05T13:20:30.239Z,51.50
2022-10-05T13:22:26.440Z,51.70
2022-10-05T13:24:08.789Z,51.20
2022-10-05T13:25:55.098Z,51.40
2022-10-05T13:27:35.331Z,50.70
2022-10-05T13:29:23.235Z,50.70
2022-10-05T13:31:07.763Z,50.40
2022-10-05T13:32:48.080Z,50.40
2022-10-05T13:34:35.001Z,50.40
2022-10-05T13:36:18.769Z,50.10
2022-10-05T13:38:08.786Z,50.10
2022-10-05T13:39:59.276Z,50.20
2022-10-05T13:41:54.397Z,50.20
2022-10-05T13:43:43.879Z,49.40
2022-10-05T13:45:22.933Z,49.40
2022-10-05T13:47:06.197Z,49.50
2022-10-05T13:48:56.141Z,49.10
2022-10-05T13:50:35.839Z,49.80
2022-10-05T13:52:34.968Z,48.80
2022-10-05T13:54:20.904Z,48.60
2022-10-05T13:56:00.862Z,48.90
2022-10-05T13:57:49.669Z,49.30
2022-10-05T13:59:33.070Z,48.90
2022-10-05T14:01:16.908Z,48.90
2022-10-05T14:02:54.123Z,48.90
2022-10-05T14:04:42.983Z,49.10
2022-10-05T14:06:30.547Z,49.00
2022-10-05T14:08:18.339Z,48.40
2022-10-05T14:09:52.243Z,48.40
2022-10-05T14:11:32.395Z,49.00
2022-10-05T14:13:24.187Z,48.70
2022-10-05T14:15:00.098Z,48.40
2022-10-05T14:16:35.407Z,48.80
2022-10-05T14:18:28.840Z,48.60
2022-10-05T14:20:16.840Z,48.90
2022-10-05T14:22:01.931Z,49.00
2022-10-05T14:23:36.741Z,48.20
2022-10-05T14:25:18.189Z,48.40
2022-10-05T14:26:56.155Z,48.30
2022-10-05T14:28:33.042Z,48.50
2022-10-05T14:30:23.479Z,48.50
2022-10-05T14:32:02.981Z,48.20
2022-10-05T14:33:38.197Z,48.40
2022-10-05T14:35:18.402Z,48.60
2022-10-05T14:36:58.868Z,48.90
2022-10-05T14:38:52.214Z,48.60
2022-10-05T14:40:34.068Z,48.70
2022-10-05T14:42:20.217Z,48.90
2022-10-05T14:44:00.155Z,48.70
2022-10-05T14:45:33.894Z,48.70
2022-10-05T14:47:22.490Z,48.60
2022-10-05T14:49:17.432Z,48.60
2022-10-05T14:50:56.551Z,48.80
2022-10-05T14:52:34.582Z,48.80
2022-10-05T14:54:29.853Z,49.20
2022-10-05T14:56:43.315Z,48.80
2022-10-05T14:58:55.543Z,48.90
2022-10-05T15:00:34.678Z,49.40
2022-10-05T15:02:36.050Z,49.40
2022-10-05T15:04:35.010Z,49.10
2022-10-05T15:06:22.044Z,49.40
2022-10-05T15:08:08.774Z,49.40
2022-10-05T15:10:07.411Z,49.60
2022-10-05T15:11:50.210Z,49.90
2022-10-05T15:13:30.453Z,49.90
2022-10-05T15:15:17.901Z,49.90
2022-10-05T15:16:54.691Z,49.90
2022-10-05T15:18:40.895Z,50.00
2022-10-05T15:20:25.711Z,50.10
2022-10-05T15:22:23.503Z,50.50
2022-10-05T15:24:03.679Z,50.60
2022-10-05T15:25:47.850Z,50.50
2022-10-05T15:27:32.712Z,50.80
2022-10-05T15:29:21.591Z,50.80
2022-10-05T15:31:04.002Z,50.60
2022-10-05T15:32:59.811Z,50.80
2022-10-05T15:34:42.317Z,51.00
2022-10-05T15:36:35.389Z,51.00
2022-10-05T15:38:25.599Z,50.90
2022-10-05T15:40:04.432Z,51.00
2022-10-05T15:42:00.352Z,51.00
2022-10-05T15:43:48.495Z,51.10
2022-10-05T15:45:32.175Z,51.20
2022-10-05T15:47:10.675Z,51.40
2022-10-05T15:49:00.551Z,51.40
2022-10-05T15:50:46.607Z,51.70
2022-10-05T15:52:29.782Z,51.90
2022-10-05T15:54:28.502Z,51.90
2022-10-05T15:56:10.847Z,52.00
2022-10-05T15:57:51.849Z,52.20
2022-10-05T15:59:34.151Z,52.30
2022-10-05T16:01:13.258Z,52.20
2022-10-05T16:02:56.452Z,52.40
2022-10-05T16:04:48.434Z,52.50
2022-10-05T16:06:56.629Z,52.70
2022-10-05T16:09:03.176Z,52.70
2022-10-05T16:10:44.856Z,53.00
2022-10-05T16:12:39.169Z,53.00
2022-10-05T16:14:28.903Z,53.10
2022-10-05T16:16:21.988Z,52.90
2022-10-05T16:18:13.459Z,53.00
2022-10-05T16:20:04.037Z,53.20
2022-10-05T16:21:51.560Z,53.30
2022-10-05T16:23:42.266Z,53.40
2022-10-05T16:25:24.656Z,53.80
2022-10-05T16:27:04.514Z,53.80
2022-10-05T16:28:54.055Z,54.00
2022-10-05T16:30:30.658Z,54.40
2022-10-05T16:32:17.438Z,54.40
2022-10-05T16:34:06.568Z,54.50
2022-10-05T16:35:52.910Z,54.60
2022-10-05T16:37:39.299Z,54.60
2022-10-05T16:39:23.171Z,54.70
2022-10-05T16:41:08.181Z,54.90
2022-10-05T16:42:58.080Z,55.10
2022-10-05T16:44:44.293Z,55.30
2022-10-05T16:46:30.949Z,55.70
2022-10-05T16:48:16.762Z,55.00
2022-10-05T16:50:04.033Z,55.10
2022-10-05T16:51:55.485Z,55.90
2022-10-05T16:53:36.984Z,55.30
2022-10-05T16:55:20.024Z,55.30
2022-10-05T16:56:59.290Z,55.30
2022-10-05T16:58:54.528Z,55.50
2022-10-05T17:00:46.420Z,55.60
2022-10-05T17:02:40.845Z,55.80
2022-10-05T17:04:38.793Z,56.10
2022-10-05T17:06:56.537Z,56.00
2022-10-05T17:09:12.025Z,56.20
2022-10-05T17:11:15.991Z,56.20
2022-10-05T17:13:05.957Z,56.40
2022-10-05T17:14:56.448Z,56.50
2022-10-05T17:16:51.460Z,56.50
2022-10-05T17:18:54.992Z,56.80
2022-10-05T17:20:49.157Z,56.80
2022-10-05T17:22:30.163Z,57.00
2022-10-05T17:24:24.355Z,56.90
2022-10-05T17:26:13.643Z,57.10
2022-10-05T17:28:16.359Z,57.20
2022-10-05T17:29:53.012Z,57.40
2022-10-05T17:31:26.970Z,57.20
2022-10-05T17:33:19.821Z,57.40
2022-10-05T17:35:18.938Z,57.70
2022-10-05T17:36:59.668Z,58.00
2022-10-05T17:38:49.730Z,57.70
2022-10-05T17:40:38.260Z,57.90
2022-10-05T17:42:48.088Z,58.00
2022-10-05T17:44:26.283Z,58.30
2022-10-05T17:46:00.993Z,58.10
2022-10-05T17:47:56.519Z,58.20
2022-10-05T17:50:18.425Z,58.60
2022-10-05T17:52:23.083Z,58.80
2022-10-05T17:54:13.859Z,58.60
2022-10-05T17:55:47.775Z,58.40
2022-10-05T17:57:24.575Z,58.50
2022-10-05T17:59:01.406Z,58.70
2022-10-05T18:01:06.902Z,58.80
2022-10-05T18:02:43.731Z,59.20
2022-10-05T18:04:38.508Z,59.00
2022-10-05T18:06:34.218Z,59.40
2022-10-05T18:08:32.610Z,59.70
2022-10-05T18:10:28.729Z,59.70
2022-10-05T18:12:37.153Z,59.80
2022-10-05T18:14:23.205Z,59.60
2022-10-05T18:15:56.768Z,59.80
2022-10-05T18:17:45.500Z,59.70
2022-10-05T18:19:23.481Z,60.00
2022-10-05T18:21:30.412Z,60.00
2022-10-05T18:23:35.322Z,60.50
2022-10-05T18:25:26.039Z,60.40
2022-10-05T18:27:26.446Z,60.10
2022-10-05T18:29:44.414Z,60.30
2022-10-05T18:31:33.800Z,60.10
2022-10-05T18:33:50.650Z,60.00
2022-10-05T18:35:32.847Z,60.40
2022-10-05T18:37:31.605Z,60.10
2022-10-05T18:39:24.051Z,60.40
2022-10-05T18:41:06.582Z,60.50
2022-10-05T18:42:53.786Z,61.30
2022-10-05T18:44:40.415Z,60.60
2022-10-05T18:46:28.940Z,60.70
2022-10-05T18:48:19.514Z,60.60
2022-10-05T18:50:12.668Z,60.30
2022-10-05T18:51:56.230Z,60.10
2022-10-05T18:53:43.440Z,59.90
2022-10-05T18:55:32.719Z,59.80
2022-10-05T18:57:48.468Z,59.80
2022-10-05T18:59:48.490Z,59.80
2022-10-05T19:01:49.171Z,59.60
2022-10-05T19:03:32.667Z,59.70
2022-10-05T19:05:46.835Z,59.60
2022-10-05T19:07:32.017Z,59.50
2022-10-05T19:09:24.785Z,59.60
2022-10-05T19:11:17.830Z,59.70
2022-10-05T19:13:10.744Z,59.60
2022-10-05T19:14:56.622Z,59.70
2022-10-05T19:16:55.324Z,59.70
2022-10-05T19:18:50.594Z,60.10
2022-10-05T19:20:33.975Z,60.30
2022-10-05T19:22:23.256Z,60.30
2022-10-05T19:24:41.794Z,60.50
2022-10-05T19:26:30.831Z,60.60
2022-10-05T19:28:20.612Z,60.50
2022-10-05T19:30:19.523Z,60.70
2022-10-05T19:32:00.737Z,60.60
2022-10-05T19:33:59.243Z,60.60
2022-10-05T19:35:45.038Z,60.60
2022-10-05T19:37:31.191Z,60.60
2022-10-05T19:39:13.445Z,60.60
2022-10-05T19:40:57.878Z,60.70
2022-10-05T19:43:10.917Z,60.80
2022-10-05T19:45:03.579Z,61.10
2022-10-05T19:46:55.429Z,61.10
2022-10-05T19:48:43.059Z,61.20
2022-10-05T19:50:28.279Z,61.10
2022-10-05T19:52:02.105Z,61.10
2022-10-05T19:53:45.698Z,61.00
2022-10-05T19:55:36.100Z,61.30
2022-10-05T19:57:18.109Z,61.70
2022-10-05T19:58:57.820Z,61.40
2022-10-05T20:00:35.407Z,61.40
2022-10-05T20:02:15.287Z,61.40
2022-10-05T20:03:49.299Z,61.60
2022-10-05T20:05:23.785Z,61.70
2022-10-05T20:06:57.338Z,61.80
2022-10-05T20:08:41.823Z,61.90
2022-10-05T20:10:29.790Z,62.20
2022-10-05T20:12:03.873Z,62.30
2022-10-05T20:13:39.970Z,61.90
2022-10-05T20:15:38.375Z,62.00
2022-10-05T20:17:35.916Z,62.30
2022-10-05T20:19:47.096Z,62.50
2022-10-05T20:21:56.560Z,62.50
2022-10-05T20:23:30.331Z,62.70
2022-10-05T20:25:06.691Z,62.20
2022-10-05T20:27:04.467Z,62.20
2022-10-05T20:28:38.716Z,62.30
2022-10-05T20:30:17.759Z,62.30
2022-10-05T20:31:50.114Z,62.30
2022-10-05T20:33:27.331Z,62.30
2022-10-05T20:35:00.711Z,62.60
2022-10-05T20:36:34.624Z,62.60
2022-10-05T20:38:07.992Z,62.60
2022-10-05T20:39:42.456Z,62.50
2022-10-05T20:41:16.492Z,62.30
2022-10-05T20:42:50.294Z,62.40
2022-10-05T20:44:22.607Z,62.20
2022-10-05T20:45:57.719Z,62.30
2022-10-05T20:47:32.033Z,61.90
2022-10-05T20:49:08.347Z,62.00
2022-10-05T20:50:41.762Z,61.90
2022-10-05T20:52:15.723Z,61.90
2022-10-05T20:53:49.863Z,62.20
2022-10-05T20:55:23.215Z,62.30
2022-10-05T20:56:57.524Z,62.00
2022-10-05T20:58:30.728Z,62.10
2022-10-05T21:00:05.450Z,62.00
2022-10-05T21:01:40.246Z,62.10
2022-10-05T21:03:13.776Z,62.30
2022-10-05T21:04:48.418Z,62.40
2022-10-05T21:06:21.283Z,62.40
2022-10-05T21:07:54.507Z,62.30
2022-10-05T21:09:27.786Z,62.40
2022-10-05T21:11:01.070Z,62.20
2022-10-05T21:12:34.602Z,62.00
2022-10-05T21:14:07.973Z,61.50
2022-10-05T21:15:41.615Z,61.30
2022-10-05T21:17:16.319Z,61.30
2022-10-05T21:18:49.941Z,61.30
2022-10-05T21:20:23.408Z,61.30
2022-10-05T21:21:59.072Z,61.50
2022-10-05T21:23:32.688Z,61.40
2022-10-05T21:25:09.012Z,61.50
2022-10-05T21:26:44.121Z,61.70
2022-10-05T21:28:17.430Z,61.90
2022-10-05T21:29:51.306Z,61.60
2022-10-05T21:31:24.747Z,61.40
2022-10-05T21:32:59.413Z,61.40
2022-10-05T21:34:33.041Z,61.60
2022-10-05T21:36:06.575Z,61.60
2022-10-05T21:37:39.863Z,61.70
2022-10-05T21:39:13.176Z,62.00
2022-10-05T21:40:46.547Z,61.10
2022-10-05T21:42:20.009Z,60.90
2022-10-05T21:43:54.180Z,60.80
2022-10-05T21:45:29.242Z,60.60
2022-10-05T21:47:04.176Z,60.60
2022-10-05T21:48:40.608Z,60.60
2022-10-05T21:50:14.304Z,60.40
2022-10-05T21:51:48.334Z,60.40
2022-10-05T21:53:27.786Z,60.30
2022-10-05T21:55:01.179Z,60.10
2022-10-05T21:56:38.709Z,60.00
2022-10-05T21:58:13.735Z,60.00
2022-10-05T21:59:47.362Z,60.20
2022-10-05T22:01:22.701Z,59.90
2022-10-05T22:02:56.362Z,59.80
2022-10-05T22:04:31.027Z,59.70
2022-10-05T22:06:04.634Z,59.80
2022-10-05T22:07:38.352Z,59.70
2022-10-05T22:09:11.992Z,59.80
2022-10-05T22:10:45.227Z,59.80
2022-10-05T22:12:20.464Z,59.70
2022-10-05T22:13:54.555Z,59.60
2022-10-05T22:15:29.408Z,59.60
2022-10-05T22:17:02.647Z,60.20
2022-10-05T22:18:35.813Z,59.70
2022-10-05T22:20:14.361Z,59.60
2022-10-05T22:21:48.114Z,59.70
2022-10-05T22:23:20.748Z,59.50
2022-10-05T22:24:54.856Z,59.60
2022-10-05T22:26:28.215Z,59.50
2022-10-05T22:28:02.751Z,59.70
2022-10-05T22:29:36.607Z,59.70
2022-10-05T22:31:12.660Z,59.60
2022-10-05T22:32:46.440Z,59.80
2022-10-05T22:34:19.952Z,60.50
2022-10-05T22:35:54.515Z,59.70
2022-10-05T22:37:27.896Z,59.70
2022-10-05T22:39:00.354Z,59.70
2022-10-05T22:40:33.567Z,59.80
2022-10-05T22:42:07.104Z,59.90
2022-10-05T22:43:40.523Z,60.10
2022-10-05T22:45:14.082Z,60.40
2022-10-05T22:46:47.899Z,60.50
2022-10-05T22:48:21.291Z,60.80
2022-10-05T22:49:53.847Z,61.00
2022-10-05T22:51:28.533Z,60.70
2022-10-05T22:53:01.089Z,60.50
2022-10-05T22:54:37.337Z,60.20
2022-10-05T22:56:14.343Z,60.30
2022-10-05T22:57:49.156Z,60.00
2022-10-05T22:59:22.636Z,59.90
2022-10-05T23:01:00.707Z,59.80
2022-10-05T23:02:37.691Z,59.70
2022-10-05T23:04:11.818Z,59.70
2022-10-05T23:05:45.375Z,59.50
2022-10-05T23:07:20.969Z,59.60
2022-10-05T23:08:55.603Z,60.20
2022-10-05T23:10:29.135Z,59.60
2022-10-05T23:12:02.796Z,59.70
2022-10-05T23:13:36.815Z,59.40
2022-10-05T23:15:11.950Z,59.40
2022-10-05T23:16:45.170Z,59.60
2022-10-05T23:18:17.573Z,59.50
2022-10-05T23:19:50.997Z,59.50
2022-10-05T23:21:28.814Z,59.60
2022-10-05T23:23:02.361Z,59.80
2022-10-05T23:24:35.619Z,59.90
2022-10-05T23:26:12.237Z,60.00
2022-10-05T23:27:45.571Z,60.30